Skip Navigation Links Skip Navigation Links

Current Weather

Ann Arbor Muni, Ann Arbor, Mich.

For information only: do not use for flight planning or navigation.
Latest weather
Observation time Saturday, October 19, 2019 6:20 AM EDT
Local time Saturday, October 19, 2019 6:42 AM EDT
Flight conditions Instrument Meteorological Conditions
Winds
Wind speed calm
Visibility 1.75 mi.
Present weather mist
Sky condition
Ceiling unlimited
Sky clear
Temperature 29°F
Dewpoint 28°F
Altimeter 30.00 in.Hg
Derived measurements
Relative humidity 96%
Wind chill 29°F
Density altitude -1221 ft.
Remarks
Fully automated report.
Automated weather observing station with precipitation discriminator.
Visibility.
METAR KARB 191020Z AUTO 00000KT 1 3/4SM BR CLR M02/M02 A3000 RMK AO2 VIS 1V5 T10171022

Settings

Location code

InnerDrive.Weather 4.0.6770.0 Release CLR 4.0.30319.42000
Copyright ©2018 Inner Drive Technology. All rights reserved. Portions Copyright ©1986-2018 David Braverman.

Find weather

Site navigation


Skip Navigation Links

Place info

Page info

PayPal - The safer, easier way to pay online!

Return home.

Copyright ©2019 Inner Drive Technology. Purveyors of fine, hand-crafted computer software. Page printed 2019-10-19T10:42:54 UTC.